Mayport, Pennsylvania
Current Conditions -  °F | °C
As of 9:53 PM on Monday 26 Jan 2015 (Local Time) from KDUJ Reporting Station
Light Snow Light Snow  
Wind Chill: 11°   Ceiling: 3100
Heat Index: 19°   Visibility: 1.5mi
Dew Point: 16°   Wind: 6mph
Humidity: 88%   Direction: 20°NNE
Pressure: 29.75"   Gusts: NA
Location:  41.03°N, 79.25°W
Report Text: KDUJ 270253Z AUTO 02005KT 1 1/2SM -SN BR OVC031 M07/M09 A2975 RMK AO2 SLP102 P0001 60002 T10721089 55000
Loading
Personal Weather Stations






























Interactive Weather Map New forecast layout! Learn more

10-Day Weather Forecast

Advertisements
Track Severe Weather on mobile